createdAt,value
2022-08-04T00:00:16.113Z,99268.59
2022-08-04T00:03:02.183Z,99271.88
2022-08-04T00:05:56.953Z,99272.66
2022-08-04T00:08:41.461Z,99270.22
2022-08-04T00:11:15.420Z,99260.97
2022-08-04T00:14:03.506Z,99265.50
2022-08-04T00:16:41.861Z,99262.47
2022-08-04T00:19:30.543Z,99264.31
2022-08-04T00:22:10.978Z,99261.22
2022-08-04T00:24:41.755Z,99267.97
2022-08-04T00:27:09.171Z,99261.84
2022-08-04T00:29:38.788Z,99265.94
2022-08-04T00:32:08.668Z,99266.97
2022-08-04T00:34:36.991Z,99260.22
2022-08-04T00:37:06.072Z,99271.03
2022-08-04T00:39:34.931Z,99263.69
2022-08-04T00:42:37.565Z,99262.06
2022-08-04T00:46:16.197Z,99261.84
2022-08-04T00:49:11.332Z,99265.13
2022-08-04T00:52:31.715Z,99257.97
2022-08-04T00:54:59.134Z,99263.28
2022-08-04T00:57:58.023Z,99262.25
2022-08-04T01:00:25.641Z,99270.03
2022-08-04T01:03:18.399Z,99272.50
2022-08-04T01:06:04.239Z,99269.03
2022-08-04T01:09:03.420Z,99268.41
2022-08-04T01:11:59.846Z,99271.91
2022-08-04T01:14:51.596Z,99280.69
2022-08-04T01:17:25.138Z,99276.38
2022-08-04T01:20:05.242Z,99275.78
2022-08-04T01:23:11.953Z,99282.31
2022-08-04T01:26:42.550Z,99281.84
2022-08-04T01:29:14.854Z,99278.06
2022-08-04T01:31:57.794Z,99269.25
2022-08-04T01:34:29.750Z,99280.13
2022-08-04T01:37:07.106Z,99275.81
2022-08-04T01:39:41.952Z,99271.56
2022-08-04T01:42:11.077Z,99273.00
2022-08-04T01:44:41.696Z,99272.81
2022-08-04T01:47:10.147Z,99269.13
2022-08-04T01:49:40.692Z,99272.63
2022-08-04T01:52:09.879Z,99271.97
2022-08-04T01:54:41.743Z,99268.50
2022-08-04T01:57:37.561Z,99269.31
2022-08-04T02:00:00.910Z,99270.97
2022-08-04T02:02:28.127Z,99269.13
2022-08-04T02:04:56.178Z,99270.38
2022-08-04T02:07:47.663Z,99274.06
2022-08-04T02:10:28.800Z,99265.47
2022-08-04T02:13:15.538Z,99273.25
2022-08-04T02:16:00.750Z,99271.78
2022-08-04T02:18:39.178Z,99267.69
2022-08-04T02:21:06.420Z,99265.41
2022-08-04T02:23:38.431Z,99269.09
2022-08-04T02:26:15.489Z,99263.97
2022-08-04T02:29:07.087Z,99259.88
2022-08-04T02:31:48.166Z,99261.09
2022-08-04T02:34:28.123Z,99261.09
2022-08-04T02:36:58.899Z,99261.91
2022-08-04T02:39:48.369Z,99260.50
2022-08-04T02:42:17.470Z,99262.94
2022-08-04T02:44:51.331Z,99265.31
2022-08-04T02:47:22.298Z,99260.22
2022-08-04T02:49:51.962Z,99256.00
2022-08-04T02:52:21.697Z,99257.09
2022-08-04T02:54:53.505Z,99252.09
2022-08-04T02:57:24.329Z,99247.56
2022-08-04T03:00:06.366Z,99249.00
2022-08-04T03:02:54.535Z,99246.97
2022-08-04T03:05:27.867Z,99252.53
2022-08-04T03:08:25.526Z,99246.81
2022-08-04T03:11:39.988Z,99246.88
2022-08-04T03:14:45.557Z,99251.41
2022-08-04T03:17:55.389Z,99258.56
2022-08-04T03:21:10.271Z,99248.63
2022-08-04T03:24:30.168Z,99246.94
2022-08-04T03:27:47.684Z,99252.72
2022-08-04T03:30:20.397Z,99250.25
2022-08-04T03:33:37.881Z,99250.69
2022-08-04T03:36:46.453Z,99256.84
2022-08-04T03:40:16.030Z,99260.69
2022-08-04T03:43:56.973Z,99260.31
2022-08-04T03:46:54.721Z,99258.88
2022-08-04T03:50:21.227Z,99264.78
2022-08-04T03:53:26.494Z,99259.31
2022-08-04T03:59:37.135Z,99249.47
2022-08-04T04:02:51.111Z,99253.34
2022-08-04T04:06:17.593Z,99257.00
2022-08-04T04:09:56.667Z,99253.69
2022-08-04T04:12:53.351Z,99260.31
2022-08-04T04:15:50.069Z,99254.09
2022-08-04T04:18:54.350Z,99249.00
2022-08-04T04:21:52.265Z,99248.06
2022-08-04T04:24:46.831Z,99256.25
2022-08-04T04:27:34.659Z,99258.16
2022-08-04T04:30:08.251Z,99246.50
2022-08-04T04:32:57.273Z,99259.91
2022-08-04T04:35:38.687Z,99263.59
2022-08-04T04:38:40.195Z,99263.88
2022-08-04T04:41:35.841Z,99270.06
2022-08-04T04:44:42.589Z,99265.75
2022-08-04T04:47:43.170Z,99267.09
2022-08-04T04:50:19.236Z,99267.44
2022-08-04T04:52:55.110Z,99265.97
2022-08-04T04:55:28.122Z,99273.59
2022-08-04T04:58:00.774Z,99282.53
2022-08-04T05:01:05.705Z,99277.03
2022-08-04T05:04:07.379Z,99279.28
2022-08-04T05:07:06.104Z,99284.88
2022-08-04T05:09:57.824Z,99283.88
2022-08-04T05:14:31.637Z,99283.88
2022-08-04T05:15:40.131Z,99287.72
2022-08-04T05:18:15.994Z,99293.06
2022-08-04T05:20:48.468Z,99287.81
2022-08-04T05:23:21.335Z,99289.28
2022-08-04T05:25:59.318Z,99284.00
2022-08-04T05:28:36.142Z,99286.75
2022-08-04T05:31:12.245Z,99282.03
2022-08-04T05:33:47.001Z,99293.59
2022-08-04T05:36:35.376Z,99292.66
2022-08-04T05:39:14.511Z,99290.97
2022-08-04T05:41:45.437Z,99282.41
2022-08-04T05:44:15.291Z,99281.34
2022-08-04T05:46:54.182Z,99285.41
2022-08-04T05:49:24.474Z,99292.44
2022-08-04T05:51:55.273Z,99283.69
2022-08-04T05:54:24.441Z,99291.88
2022-08-04T05:56:53.979Z,99290.25
2022-08-04T05:59:23.134Z,99293.72
2022-08-04T06:01:57.505Z,99294.63
2022-08-04T06:04:31.809Z,99291.91
2022-08-04T06:06:58.914Z,99296.72
2022-08-04T06:09:26.105Z,99292.28
2022-08-04T06:12:02.068Z,99295.78
2022-08-04T06:14:39.373Z,99298.31
2022-08-04T06:18:33.145Z,99293.63
2022-08-04T06:20:17.838Z,99291.78
2022-08-04T06:22:53.693Z,99296.81
2022-08-04T06:25:28.524Z,99301.03
2022-08-04T06:27:57.487Z,99297.91
2022-08-04T06:30:28.289Z,99293.56
2022-08-04T06:33:03.947Z,99293.31
2022-08-04T06:35:33.590Z,99302.59
2022-08-04T06:38:02.412Z,99299.38
2022-08-04T06:40:33.833Z,99293.72
2022-08-04T06:43:02.761Z,99296.84
2022-08-04T06:45:31.591Z,99295.47
2022-08-04T06:48:01.591Z,99303.47
2022-08-04T06:51:29.205Z,99308.38
2022-08-04T06:53:19.383Z,99310.06
2022-08-04T06:56:12.841Z,99312.56
2022-08-04T06:58:42.235Z,99305.72
2022-08-04T07:01:11.284Z,99306.47
2022-08-04T07:03:39.886Z,99306.38
2022-08-04T07:06:14.708Z,99300.22
2022-08-04T07:08:42.894Z,99296.94
2022-08-04T07:11:10.882Z,99301.72
2022-08-04T07:13:43.245Z,99289.72
2022-08-04T07:16:15.290Z,99295.72
2022-08-04T07:18:44.043Z,99292.75
2022-08-04T07:21:17.839Z,99296.16
2022-08-04T07:23:46.051Z,99285.97
2022-08-04T07:26:13.585Z,99282.66
2022-08-04T07:28:41.742Z,99280.19
2022-08-04T07:31:32.544Z,99274.72
2022-08-04T07:34:17.659Z,99270.88
2022-08-04T07:36:53.030Z,99278.50
2022-08-04T07:39:27.546Z,99274.50
2022-08-04T07:41:58.909Z,99281.03
2022-08-04T07:44:27.515Z,99285.13
2022-08-04T07:46:54.772Z,99266.19
2022-08-04T07:49:56.266Z,99280.63
2022-08-04T07:52:11.823Z,99282.13
2022-08-04T07:54:40.408Z,99274.50
2022-08-04T07:57:07.835Z,99263.19
2022-08-04T07:59:50.115Z,99279.06
2022-08-04T08:02:20.823Z,99265.13
2022-08-04T08:04:49.981Z,99272.97
2022-08-04T08:07:19.460Z,99271.31
2022-08-04T08:09:46.540Z,99267.50
2022-08-04T08:12:37.747Z,99258.81
2022-08-04T08:15:02.076Z,99257.00
2022-08-04T08:17:58.663Z,99263.91
2022-08-04T08:20:31.225Z,99266.13
2022-08-04T08:23:48.841Z,99257.31
2022-08-04T08:26:16.989Z,99249.81
2022-08-04T08:28:45.036Z,99254.75
2022-08-04T08:31:12.284Z,99252.22
2022-08-04T08:33:40.826Z,99252.78
2022-08-04T08:36:19.720Z,99252.22
2022-08-04T08:39:00.557Z,99247.25
2022-08-04T08:42:12.446Z,99249.06
2022-08-04T08:45:22.032Z,99253.50
2022-08-04T08:48:21.809Z,99253.09
2022-08-04T08:51:17.434Z,99261.13
2022-08-04T08:54:08.288Z,99257.56
2022-08-04T08:56:51.496Z,99258.09
2022-08-04T08:59:48.459Z,99266.75
2022-08-04T09:07:35.311Z,99255.13
2022-08-04T09:10:49.629Z,99273.75
2022-08-04T09:13:24.032Z,99273.47
2022-08-04T09:16:03.636Z,99265.53
2022-08-04T09:18:41.571Z,99262.59
2022-08-04T09:21:23.211Z,99255.34
2022-08-04T09:24:34.834Z,99266.84
2022-08-04T09:27:00.834Z,99260.09
2022-08-04T09:29:43.258Z,99245.31
2022-08-04T09:32:27.400Z,99257.59
2022-08-04T09:35:11.914Z,99266.91
2022-08-04T09:37:54.885Z,99255.44
2022-08-04T09:40:52.785Z,99253.47
2022-08-04T09:43:59.047Z,99248.25
2022-08-04T09:46:30.246Z,99254.91
2022-08-04T09:49:04.862Z,99245.22
2022-08-04T09:51:58.385Z,99257.44
2022-08-04T09:54:46.693Z,99252.84
2022-08-04T09:57:28.624Z,99255.94
2022-08-04T10:00:05.907Z,99263.41
2022-08-04T10:02:51.016Z,99257.59
2022-08-04T10:05:25.126Z,99255.31
2022-08-04T10:08:18.374Z,99244.31
2022-08-04T10:10:59.759Z,99239.91
2022-08-04T10:13:48.295Z,99246.19
2022-08-04T10:16:40.751Z,99249.56
2022-08-04T10:19:25.751Z,99246.97
2022-08-04T10:22:29.840Z,99229.44
2022-08-04T10:26:03.389Z,99216.81
2022-08-04T10:28:18.394Z,99226.31
2022-08-04T10:31:49.809Z,99230.41
2022-08-04T10:34:22.288Z,99219.72
2022-08-04T10:37:06.160Z,99219.22
2022-08-04T10:39:54.068Z,99223.78
2022-08-04T10:42:35.788Z,99216.75
2022-08-04T10:45:18.061Z,99212.28
2022-08-04T10:48:05.877Z,99212.53
2022-08-04T10:50:48.525Z,99216.16
2022-08-04T10:55:02.311Z,99211.59
2022-08-04T12:46:32.263Z,99152.50
2022-08-04T12:50:12.377Z,99159.44
2022-08-04T12:53:03.762Z,99163.38
2022-08-04T12:55:35.100Z,99161.03
2022-08-04T12:58:13.437Z,99160.75
2022-08-04T13:01:01.972Z,99138.16
2022-08-04T13:03:58.237Z,99149.28
2022-08-04T13:06:31.105Z,99148.38
2022-08-04T13:13:05.312Z,99143.47
2022-08-04T13:15:32.536Z,99136.59
2022-08-04T13:18:05.636Z,99135.19
2022-08-04T13:20:44.576Z,99135.97
2022-08-04T13:23:21.976Z,99134.44
2022-08-04T13:26:43.580Z,99131.56
2022-08-04T13:28:54.838Z,99130.25
2022-08-04T13:31:35.856Z,99120.28
2022-08-04T13:34:08.266Z,99119.88
2022-08-04T13:36:49.300Z,99110.88
2022-08-04T13:39:20.394Z,99121.53
2022-08-04T13:41:57.950Z,99111.81
2022-08-04T13:44:30.609Z,99108.63
2022-08-04T13:47:03.418Z,99113.72
2022-08-04T13:50:16.952Z,99113.13
2022-08-04T13:52:47.059Z,99106.56
2022-08-04T13:55:28.443Z,99091.91
2022-08-04T13:58:04.887Z,99094.34
2022-08-04T14:00:44.908Z,99094.91
2022-08-04T14:03:24.719Z,99086.94
2022-08-04T14:06:14.942Z,99097.53
2022-08-04T14:08:54.761Z,99087.38
2022-08-04T14:12:09.085Z,99096.34
2022-08-04T14:14:25.645Z,99088.97
2022-08-04T14:17:04.862Z,99090.63
2022-08-04T14:30:24.019Z,99080.25
2022-08-04T14:34:02.509Z,99077.00
2022-08-04T14:35:58.306Z,99075.06
2022-08-04T14:43:19.523Z,99066.22
2022-08-04T14:46:21.523Z,99064.00
2022-08-04T14:57:23.117Z,99062.53
2022-08-04T14:59:59.744Z,99061.56
2022-08-04T15:02:30.457Z,99053.13
2022-08-04T15:05:59.895Z,99057.13
2022-08-04T15:07:49.380Z,99052.88
2022-08-04T15:10:16.746Z,99049.75
2022-08-04T15:12:45.735Z,99041.53
2022-08-04T15:15:35.277Z,99040.50
2022-08-04T15:18:00.822Z,99047.59
2022-08-04T15:20:37.472Z,99050.09
2022-08-04T15:23:10.118Z,99042.63
2022-08-04T15:25:42.376Z,99040.19
2022-08-04T15:28:19.871Z,99043.94
2022-08-04T15:30:53.366Z,99040.56
2022-08-04T15:33:24.035Z,99043.72
2022-08-04T15:36:15.448Z,99042.47
2022-08-04T15:38:59.944Z,99044.91
2022-08-04T15:41:46.216Z,99043.63
2022-08-04T15:45:07.968Z,99032.00
2022-08-04T15:47:35.103Z,99036.66
2022-08-04T15:50:13.658Z,99017.91
2022-08-04T15:54:03.657Z,99022.03
2022-08-04T15:56:48.358Z,99031.94
2022-08-04T16:00:00.982Z,99027.34
2022-08-04T16:06:44.602Z,99022.59
2022-08-04T16:09:45.685Z,99018.38
2022-08-04T16:12:55.243Z,99019.31
2022-08-04T16:15:45.180Z,99022.75
2022-08-04T16:18:34.704Z,99013.72
2022-08-04T16:21:06.067Z,99011.31
2022-08-04T16:24:13.112Z,99005.31
2022-08-04T16:26:57.261Z,99006.56
2022-08-04T16:29:38.577Z,99008.41
2022-08-04T16:32:17.962Z,99005.22
2022-08-04T16:34:56.226Z,99001.25
2022-08-04T16:37:31.507Z,99007.44
2022-08-04T16:40:41.405Z,99001.56
2022-08-04T16:43:13.650Z,98990.25
2022-08-04T16:45:54.535Z,98988.28
2022-08-04T16:48:30.025Z,98983.97
2022-08-04T16:56:11.290Z,98977.53
2022-08-04T16:58:55.243Z,98978.31
2022-08-04T17:01:33.207Z,98966.22
2022-08-04T17:04:07.682Z,98956.91
2022-08-04T17:06:38.506Z,98970.41
2022-08-04T17:09:12.223Z,98965.59
2022-08-04T17:11:44.701Z,98971.25
2022-08-04T17:14:13.112Z,98972.88
2022-08-04T17:16:42.674Z,98971.56
2022-08-04T17:19:24.112Z,98967.16
2022-08-04T17:22:04.588Z,98965.47
2022-08-04T17:25:51.775Z,98962.09
2022-08-04T17:28:28.555Z,98964.03
2022-08-04T17:31:11.948Z,98953.34
2022-08-04T17:33:55.007Z,98956.03
2022-08-04T17:36:37.301Z,98951.84
2022-08-04T17:44:37.692Z,98949.38
2022-08-04T17:47:16.375Z,98961.78
2022-08-04T17:50:11.701Z,98966.66
2022-08-04T17:57:38.834Z,98969.47
2022-08-04T18:01:23.790Z,98954.28
2022-08-04T18:03:58.260Z,98959.47
2022-08-04T18:06:32.238Z,98959.03
2022-08-04T18:09:23.083Z,98974.75
2022-08-04T18:11:56.812Z,98967.47
2022-08-04T18:14:28.766Z,98954.84
2022-08-04T18:16:58.139Z,98965.44
2022-08-04T18:19:31.657Z,98967.38
2022-08-04T18:22:00.279Z,98975.19
2022-08-04T18:27:20.266Z,98974.28
2022-08-04T18:30:15.128Z,98979.47
2022-08-04T18:32:36.364Z,98974.19
2022-08-04T18:35:07.319Z,98980.69
2022-08-04T18:38:05.460Z,98988.84
2022-08-04T18:40:52.326Z,98971.56
2022-08-04T18:43:28.273Z,98977.03
2022-08-04T18:45:58.140Z,98977.34
2022-08-04T18:51:23.489Z,98970.41
2022-08-04T18:54:01.661Z,98973.94
2022-08-04T18:56:32.668Z,98971.75
2022-08-04T18:59:03.629Z,98975.00
2022-08-04T19:02:16.653Z,98982.78
2022-08-04T20:09:24.558Z,99021.59
2022-08-04T20:11:55.407Z,99024.25
2022-08-04T20:14:31.436Z,99032.06
2022-08-04T20:17:02.080Z,99036.44
2022-08-04T20:19:30.268Z,99033.38
2022-08-04T20:22:00.238Z,99021.47
2022-08-04T20:24:37.791Z,99030.09
2022-08-04T20:27:14.835Z,99035.75
2022-08-04T20:29:49.299Z,99034.94
2022-08-04T20:32:25.254Z,99031.72
2022-08-04T20:34:55.144Z,99027.63
2022-08-04T20:37:24.748Z,99030.31
2022-08-04T20:39:58.757Z,99029.59
2022-08-04T20:42:34.001Z,99029.25
2022-08-04T20:45:02.152Z,99027.38
2022-08-04T20:47:35.741Z,99031.44
2022-08-04T20:50:08.923Z,99039.78
2022-08-04T20:52:36.712Z,99031.53
2022-08-04T20:55:08.736Z,99029.28
2022-08-04T20:57:49.157Z,99032.56
2022-08-04T21:00:26.509Z,99034.41
2022-08-04T21:02:57.777Z,99034.59
2022-08-04T21:05:26.486Z,99040.72
2022-08-04T21:07:55.708Z,99040.53
2022-08-04T21:10:24.237Z,99033.88
2022-08-04T21:12:53.736Z,99041.19
2022-08-04T21:15:24.832Z,99031.75
2022-08-04T21:17:58.741Z,99041.09
2022-08-04T21:20:43.165Z,99039.47
2022-08-04T21:23:10.269Z,99040.84
2022-08-04T21:25:43.405Z,99044.59
2022-08-04T21:28:11.409Z,99038.69
2022-08-04T21:30:54.513Z,99038.28
2022-08-04T21:33:49.964Z,99048.56
2022-08-04T21:36:13.686Z,99029.97
2022-08-04T21:38:41.687Z,99043.22
2022-08-04T21:41:10.336Z,99041.03
2022-08-04T21:43:42.976Z,99037.19
2022-08-04T21:46:11.798Z,99036.03
2022-08-04T21:48:39.211Z,99040.31
2022-08-04T21:51:58.840Z,99028.59
2022-08-04T21:54:04.929Z,99036.84
2022-08-04T21:56:35.146Z,99035.06
2022-08-04T21:59:08.766Z,99043.22
2022-08-04T22:01:51.839Z,99044.41
2022-08-04T22:09:14.859Z,99047.31
2022-08-04T22:14:36.154Z,99047.19
2022-08-04T22:17:13.616Z,99037.28
2022-08-04T22:19:54.596Z,99036.94
2022-08-04T22:22:27.045Z,99042.41
2022-08-04T22:25:01.508Z,99038.13
2022-08-04T22:27:30.372Z,99033.81
2022-08-04T22:29:59.437Z,99043.34
2022-08-04T22:32:26.271Z,99040.91
2022-08-04T22:34:53.872Z,99046.16
2022-08-04T22:37:20.859Z,99050.50
2022-08-04T22:40:04.777Z,99053.28
2022-08-04T22:42:33.348Z,99040.56
2022-08-04T22:45:01.172Z,99053.94
2022-08-04T22:47:28.943Z,99048.47
2022-08-04T22:50:20.786Z,99049.44
2022-08-04T22:52:51.637Z,99034.44
2022-08-04T22:55:23.008Z,99042.84
2022-08-04T22:58:05.114Z,99049.41
2022-08-04T23:00:36.294Z,99045.94
2022-08-04T23:03:06.996Z,99044.69
2022-08-04T23:05:38.352Z,99045.56
2022-08-04T23:08:05.823Z,99042.56
2022-08-04T23:10:33.296Z,99034.56
2022-08-04T23:13:04.105Z,99032.53
2022-08-04T23:15:33.453Z,99038.09
2022-08-04T23:18:01.976Z,99030.31
2022-08-04T23:20:32.702Z,99025.44
2022-08-04T23:23:00.528Z,99024.25
2022-08-04T23:26:07.613Z,99021.44
2022-08-04T23:28:33.190Z,99014.69
2022-08-04T23:31:00.014Z,99010.97
2022-08-04T23:33:49.450Z,99010.53
2022-08-04T23:36:16.969Z,99010.69
2022-08-04T23:38:43.885Z,99004.84
2022-08-04T23:41:14.396Z,99019.41
2022-08-04T23:43:55.491Z,99015.16
2022-08-04T23:46:23.119Z,99017.94
2022-08-04T23:48:50.151Z,99024.59
2022-08-04T23:51:17.206Z,99021.47
2022-08-04T23:54:02.173Z,99027.75
2022-08-04T23:56:32.437Z,99025.78
2022-08-04T23:59:03.634Z,99019.47
